Time;durP1;ratioP1;P1;durP2;ratioP2;P2;SDS_P1;SDS_P2;PMS_P1;PMS_P2;Temp;Humidity;BMP_temperature;BMP_pressure;BME280_temperature;BME280_humidity;BME280_pressure;Samples;Min_cycle;Max_cycle;Signal;HPM_P1;HPM_P2
2021/07/22 00:00:22;;;;;;;4.90;3.95;;;18.20;99.90;;;;;;6152086;23;20183;-69
2021/07/22 00:02:49;;;;;;;6.85;4.53;;;18.20;99.90;;;;;;6153356;23;20176;-69
2021/07/22 00:05:16;;;;;;;5.18;3.63;;;18.20;99.90;;;;;;6152739;23;20179;-70
2021/07/22 00:07:45;;;;;;;6.32;3.90;;;18.20;99.90;;;;;;6152889;23;20179;-69
2021/07/22 00:10:13;;;;;;;6.53;4.40;;;18.20;99.90;;;;;;6152619;23;20209;-69
2021/07/22 00:12:40;;;;;;;5.60;3.97;;;18.20;99.90;;;;;;6152076;23;20207;-70
2021/07/22 00:15:08;;;;;;;6.87;4.50;;;18.10;99.90;;;;;;6152523;23;20507;-69
2021/07/22 00:17:35;;;;;;;5.43;4.18;;;18.10;99.90;;;;;;6152533;23;20201;-70
2021/07/22 00:20:02;;;;;;;6.00;3.92;;;18.10;99.90;;;;;;6152016;23;20179;-69
2021/07/22 00:22:29;;;;;;;7.77;4.47;;;18.10;99.90;;;;;;6152580;23;20519;-70
2021/07/22 00:24:57;;;;;;;6.60;3.85;;;18.10;99.90;;;;;;6152562;23;20654;-70
2021/07/22 00:27:24;;;;;;;6.78;4.50;;;18.00;99.90;;;;;;6152664;23;20190;-70
2021/07/22 00:29:51;;;;;;;7.47;4.40;;;18.10;99.90;;;;;;6151773;23;20198;-70
2021/07/22 00:32:18;;;;;;;6.80;4.30;;;18.10;99.90;;;;;;6152902;23;20236;-69
2021/07/22 00:34:44;;;;;;;5.53;4.63;;;18.10;99.90;;;;;;6153276;23;20505;-69
2021/07/22 00:37:11;;;;;;;4.68;3.47;;;18.10;99.90;;;;;;6153035;23;20195;-69
2021/07/22 00:39:38;;;;;;;8.43;4.65;;;18.10;99.90;;;;;;6151945;23;20183;-70
2021/07/22 00:42:06;;;;;;;5.47;3.85;;;18.10;99.90;;;;;;6153265;23;20178;-70
2021/07/22 00:44:33;;;;;;;7.03;4.90;;;18.10;99.90;;;;;;6152594;23;20613;-71
2021/07/22 00:46:59;;;;;;;8.70;4.40;;;18.00;99.90;;;;;;6152524;23;20186;-69
2021/07/22 00:49:26;;;;;;;8.15;4.57;;;18.10;99.90;;;;;;6152193;23;20183;-70
2021/07/22 00:51:53;;;;;;;6.60;4.60;;;18.00;99.90;;;;;;6152198;23;20500;-69
2021/07/22 00:54:21;;;;;;;6.68;4.78;;;18.00;99.90;;;;;;6152529;23;20180;-70
2021/07/22 00:56:48;;;;;;;7.53;5.07;;;18.10;99.90;;;;;;6152549;23;20183;-69
2021/07/22 00:59:16;;;;;;;8.27;5.13;;;18.10;99.90;;;;;;6151784;23;20245;-70
2021/07/22 01:01:43;;;;;;;10.52;4.80;;;18.10;99.90;;;;;;6152538;23;20198;-69
2021/07/22 01:04:10;;;;;;;7.32;4.78;;;18.10;99.90;;;;;;6152839;23;20183;-70
2021/07/22 01:06:36;;;;;;;4.70;3.95;;;18.10;99.90;;;;;;6152263;23;20652;-69
2021/07/22 01:09:03;;;;;;;6.20;3.97;;;18.00;99.90;;;;;;6151782;23;20175;-68
2021/07/22 01:11:30;;;;;;;5.75;3.75;;;18.00;99.90;;;;;;6151939;23;20238;-69
2021/07/22 01:13:56;;;;;;;7.38;4.30;;;18.00;99.90;;;;;;6151711;23;20190;-71
2021/07/22 01:16:25;;;;;;;5.50;3.87;;;18.00;99.90;;;;;;6152962;23;20624;-69
2021/07/22 01:18:51;;;;;;;11.13;6.10;;;17.90;99.90;;;;;;6152313;23;20189;-70
2021/07/22 01:21:19;;;;;;;6.10;4.40;;;17.90;99.90;;;;;;6152822;23;20617;-70
2021/07/22 01:23:46;;;;;;;7.85;5.18;;;17.90;99.90;;;;;;6152523;23;20180;-71
2021/07/22 01:26:13;;;;;;;4.75;4.25;;;17.90;99.90;;;;;;6152143;23;20246;-71
2021/07/22 01:28:40;;;;;;;6.57;4.13;;;17.90;99.90;;;;;;6152430;23;20179;-69
2021/07/22 01:31:06;;;;;;;6.03;4.70;;;17.80;99.90;;;;;;6151786;23;20505;-70
2021/07/22 01:33:33;;;;;;;7.37;4.43;;;17.80;99.90;;;;;;6152299;23;20179;-69
2021/07/22 01:36:00;;;;;;;6.90;4.60;;;17.80;99.90;;;;;;6152366;23;20612;-71
2021/07/22 01:38:28;;;;;;;8.00;4.70;;;17.80;99.90;;;;;;6151571;23;20270;-69
2021/07/22 01:40:54;;;;;;;12.53;5.77;;;17.80;99.90;;;;;;6151938;23;20171;-68
2021/07/22 01:43:21;;;;;;;9.43;5.87;;;17.80;99.90;;;;;;6152662;23;20187;-69
2021/07/22 01:45:48;;;;;;;6.87;4.90;;;17.80;99.90;;;;;;6152231;23;20501;-69
2021/07/22 01:48:15;;;;;;;7.60;4.50;;;17.80;99.90;;;;;;6151623;23;20187;-70
2021/07/22 01:50:41;;;;;;;8.23;5.40;;;17.70;99.90;;;;;;6152062;23;20893;-69
2021/07/22 01:53:08;;;;;;;8.50;4.57;;;17.80;99.90;;;;;;6152779;23;20179;-68
2021/07/22 01:55:36;;;;;;;8.37;6.00;;;17.70;99.90;;;;;;6152346;23;20231;-70
2021/07/22 01:58:03;;;;;;;11.40;5.27;;;17.70;99.90;;;;;;6152473;23;20186;-69
2021/07/22 02:00:31;;;;;;;5.00;3.85;;;17.70;99.90;;;;;;6152645;23;20180;-69
2021/07/22 02:02:58;;;;;;;7.70;4.50;;;17.70;99.90;;;;;;6154092;23;20183;-68
2021/07/22 02:05:25;;;;;;;8.43;4.67;;;17.60;99.90;;;;;;6154510;23;20179;-69
2021/07/22 02:07:51;;;;;;;7.17;4.27;;;17.60;99.90;;;;;;6153781;23;20188;-69
2021/07/22 02:10:20;;;;;;;7.07;4.75;;;17.60;99.90;;;;;;6153362;23;20504;-70
2021/07/22 02:12:48;;;;;;;9.20;4.70;;;17.50;99.90;;;;;;6153534;23;20294;-69
2021/07/22 02:15:14;;;;;;;7.33;5.10;;;17.50;99.90;;;;;;6153655;23;20180;-70
2021/07/22 02:17:41;;;;;;;7.97;4.43;;;17.50;99.90;;;;;;6153801;23;20490;-69
2021/07/22 02:20:09;;;;;;;7.30;5.10;;;17.50;99.90;;;;;;6153258;23;20179;-69
2021/07/22 02:22:36;;;;;;;9.25;5.60;;;17.50;99.90;;;;;;6153672;23;20643;-69
2021/07/22 02:25:02;;;;;;;7.72;5.40;;;17.50;99.90;;;;;;6153929;23;20183;-69
2021/07/22 02:27:29;;;;;;;5.82;4.65;;;17.50;99.90;;;;;;6153828;23;20194;-69
2021/07/22 02:29:57;;;;;;;8.33;4.97;;;17.50;99.90;;;;;;6153138;23;20176;-69
2021/07/22 02:32:25;;;;;;;6.13;5.03;;;17.50;99.90;;;;;;6153553;23;20664;-69
2021/07/22 02:34:51;;;;;;;7.30;4.78;;;17.60;99.90;;;;;;6153609;23;20191;-70
2021/07/22 02:37:18;;;;;;;11.73;5.28;;;17.60;99.90;;;;;;6153557;23;20175;-71
2021/07/22 02:39:45;;;;;;;10.60;5.83;;;17.60;99.90;;;;;;6152979;23;20198;-70
2021/07/22 02:42:12;;;;;;;8.05;5.40;;;17.60;99.90;;;;;;6153364;23;20199;-69
2021/07/22 02:44:39;;;;;;;9.75;6.05;;;17.70;99.90;;;;;;6153816;23;20278;-69
2021/07/22 02:47:10;;;;;;;9.18;5.88;;;17.70;99.90;;;;;;6153845;23;20183;-69
2021/07/22 02:49:37;;;;;;;8.18;5.57;;;17.70;99.90;;;;;;6153195;23;20550;-70
2021/07/22 02:52:05;;;;;;;9.23;5.47;;;17.80;99.90;;;;;;6153479;23;20207;-69
2021/07/22 02:54:32;;;;;;;10.23;6.50;;;17.80;99.90;;;;;;6153163;23;20190;-69
2021/07/22 02:56:59;;;;;;;8.80;5.25;;;17.90;99.90;;;;;;6153481;23;20183;-69
2021/07/22 02:59:25;;;;;;;6.73;4.50;;;17.90;99.90;;;;;;6152757;23;20517;-70
2021/07/22 03:01:52;;;;;;;9.77;4.85;;;17.90;99.90;;;;;;6152997;23;20183;-70
2021/07/22 03:04:20;;;;;;;7.82;4.53;;;18.00;99.90;;;;;;6153741;23;20180;-69
2021/07/22 03:06:47;;;;;;;8.07;5.05;;;18.00;99.90;;;;;;6153773;23;20179;-69
2021/07/22 03:09:14;;;;;;;7.25;4.53;;;18.00;99.90;;;;;;6152676;23;20175;-70
2021/07/22 03:11:40;;;;;;;9.32;5.10;;;18.00;99.90;;;;;;6152843;23;20695;-69
2021/07/22 03:14:07;;;;;;;10.00;6.93;;;18.00;99.90;;;;;;6153146;23;20192;-70
2021/07/22 03:16:34;;;;;;;10.82;5.22;;;18.10;99.90;;;;;;6153565;23;20490;-70
2021/07/22 03:19:01;;;;;;;7.25;5.32;;;18.00;99.90;;;;;;6152632;23;20183;-68
2021/07/22 03:21:29;;;;;;;9.57;6.40;;;18.10;99.90;;;;;;6153018;23;20620;-69
2021/07/22 03:23:55;;;;;;;7.45;5.05;;;18.10;99.90;;;;;;6152907;23;20183;-69
2021/07/22 03:26:22;;;;;;;8.80;4.40;;;18.10;99.90;;;;;;6153621;23;20179;-70
2021/07/22 03:28:49;;;;;;;7.38;4.35;;;18.10;99.90;;;;;;6152636;23;20176;-69
2021/07/22 03:31:15;;;;;;;9.55;4.95;;;18.10;99.90;;;;;;6152746;23;20262;-68
2021/07/22 03:33:42;;;;;;;7.47;4.85;;;18.20;99.90;;;;;;6153130;23;20179;-69
2021/07/22 03:36:09;;;;;;;5.78;4.32;;;18.20;99.90;;;;;;6153173;23;20179;-70
2021/07/22 03:38:37;;;;;;;8.50;4.88;;;18.20;99.90;;;;;;6153059;23;20179;-69
2021/07/22 03:41:04;;;;;;;8.07;4.72;;;18.30;99.90;;;;;;6152299;23;20190;-69
2021/07/22 03:43:31;;;;;;;7.00;4.90;;;18.30;99.90;;;;;;6152953;23;20648;-70
2021/07/22 03:45:58;;;;;;;8.23;4.82;;;18.40;99.90;;;;;;6152987;23;20489;-70
2021/07/22 03:48:25;;;;;;;9.48;6.03;;;18.40;99.90;;;;;;6152779;23;20183;-70
2021/07/22 03:50:52;;;;;;;12.13;7.80;;;18.40;99.90;;;;;;6152324;23;20966;-69
2021/07/22 03:53:19;;;;;;;5.20;4.07;;;18.40;99.90;;;;;;6153241;23;20179;-70
2021/07/22 03:55:47;;;;;;;11.63;5.35;;;18.40;99.90;;;;;;6153650;23;20176;-69
2021/07/22 03:58:14;;;;;;;7.63;5.20;;;18.30;99.90;;;;;;6153219;23;20493;-69
2021/07/22 04:00:40;;;;;;;8.15;5.18;;;18.40;99.90;;;;;;6152139;23;20186;-69
2021/07/22 04:03:07;;;;;;;10.43;5.97;;;18.40;99.90;;;;;;6152724;23;20182;-69
2021/07/22 04:05:34;;;;;;;10.02;5.10;;;18.40;99.90;;;;;;6152899;23;20176;-69
2021/07/22 04:08:01;;;;;;;9.25;4.97;;;18.50;99.90;;;;;;6152835;23;20523;-70
2021/07/22 04:10:30;;;;;;;10.20;4.82;;;18.60;99.90;;;;;;6152170;23;20199;-70
2021/07/22 04:12:59;;;;;;;9.25;4.72;;;18.60;99.90;;;;;;6152729;23;20612;-71
2021/07/22 04:15:26;;;;;;;7.00;5.00;;;18.50;99.90;;;;;;6152336;23;20289;-69
2021/07/22 04:17:55;;;;;;;9.10;5.55;;;18.60;99.90;;;;;;6152735;23;20596;-69
2021/07/22 04:20:23;;;;;;;7.13;4.75;;;18.60;99.90;;;;;;6151649;23;20186;-69
2021/07/22 04:22:50;;;;;;;7.63;4.80;;;18.60;99.90;;;;;;6151884;23;20175;-69
2021/07/22 04:25:17;;;;;;;6.18;4.15;;;18.70;99.90;;;;;;6151934;23;20298;-69
2021/07/22 04:27:44;;;;;;;8.68;4.28;;;18.80;99.90;;;;;;6152110;23;20186;-69
2021/07/22 04:30:13;;;;;;;6.60;4.45;;;18.90;99.90;;;;;;6152265;23;20625;-69
2021/07/22 04:32:40;;;;;;;6.72;4.63;;;18.80;99.90;;;;;;6152208;23;20203;-70
2021/07/22 04:35:08;;;;;;;5.40;4.47;;;18.90;99.90;;;;;;6152801;23;20180;-69
2021/07/22 04:37:36;;;;;;;9.00;4.82;;;19.00;99.90;;;;;;6152252;23;20266;-69
2021/07/22 04:40:03;;;;;;;8.30;4.63;;;19.00;99.90;;;;;;6151395;23;20184;-69
2021/07/22 04:42:30;;;;;;;7.28;4.80;;;19.10;99.90;;;;;;6152851;23;20175;-69
2021/07/22 04:44:57;;;;;;;6.38;4.25;;;19.20;99.90;;;;;;6152462;23;20172;-69
2021/07/22 04:47:25;;;;;;;8.48;4.50;;;19.30;99.90;;;;;;6152935;23;20465;-70
2021/07/22 04:49:52;;;;;;;5.63;4.47;;;19.40;99.90;;;;;;6151706;23;20183;-70
2021/07/22 04:52:19;;;;;;;5.97;4.55;;;19.50;99.90;;;;;;6152458;23;20199;-69
2021/07/22 04:54:45;;;;;;;7.35;4.07;;;19.60;99.90;;;;;;6152899;23;20187;-70
2021/07/22 04:57:12;;;;;;;4.60;4.18;;;19.70;99.90;;;;;;6152008;23;20597;-69
2021/07/22 04:59:39;;;;;;;6.45;3.75;;;19.70;99.90;;;;;;6151414;23;20183;-69
2021/07/22 05:02:06;;;;;;;8.63;4.47;;;19.80;99.90;;;;;;6152292;23;20172;-69
2021/07/22 05:04:34;;;;;;;4.82;3.78;;;19.80;99.90;;;;;;6152593;23;20523;-70
2021/07/22 05:07:01;;;;;;;6.57;3.33;;;19.90;99.90;;;;;;6151916;23;20529;-69
2021/07/22 05:09:27;;;;;;;6.95;4.10;;;20.00;99.90;;;;;;6151015;23;20203;-70
2021/07/22 05:11:55;;;;;;;4.55;3.70;;;20.00;99.90;;;;;;6151504;23;20508;-68
2021/07/22 05:14:23;;;;;;;5.68;4.40;;;20.10;99.90;;;;;;6152014;23;20175;-68
2021/07/22 05:16:50;;;;;;;6.22;3.78;;;20.20;99.90;;;;;;6152283;23;20187;-69
2021/07/22 05:19:17;;;;;;;4.68;3.88;;;20.20;99.90;;;;;;6151522;23;20185;-67
2021/07/22 05:21:45;;;;;;;6.68;4.18;;;20.40;99.90;;;;;;6151719;23;20617;-69
2021/07/22 05:24:12;;;;;;;8.15;4.35;;;20.40;99.90;;;;;;6153804;23;20404;-71
2021/07/22 05:26:40;;;;;;;7.05;3.97;;;20.50;99.90;;;;;;6152320;23;20180;-69
2021/07/22 05:29:07;;;;;;;5.82;3.70;;;20.60;99.90;;;;;;6150781;23;20185;-69
2021/07/22 05:31:33;;;;;;;5.30;3.45;;;20.70;99.90;;;;;;6151435;23;20187;-69
2021/07/22 05:34:01;;;;;;;4.20;3.13;;;20.80;99.90;;;;;;6151849;23;20657;-69
2021/07/22 05:36:27;;;;;;;5.60;3.72;;;20.90;99.90;;;;;;6152572;23;20179;-69
2021/07/22 05:38:55;;;;;;;5.35;3.08;;;20.90;99.90;;;;;;6151431;23;20185;-70
2021/07/22 05:41:22;;;;;;;7.38;3.30;;;21.00;99.90;;;;;;6151982;23;20179;-69
2021/07/22 05:43:49;;;;;;;4.45;3.13;;;21.00;99.90;;;;;;6151531;23;20175;-69
2021/07/22 05:46:19;;;;;;;6.43;2.85;;;21.10;99.90;;;;;;6151873;23;20190;-69
2021/07/22 05:48:46;;;;;;;5.95;3.38;;;21.20;99.90;;;;;;6149680;23;20171;-70
2021/07/22 05:51:13;;;;;;;5.93;3.50;;;21.40;99.90;;;;;;6151659;23;20179;-70
2021/07/22 05:53:39;;;;;;;6.88;4.43;;;21.50;99.90;;;;;;6151122;23;20206;-69
2021/07/22 05:56:10;;;;;;;3.63;3.10;;;21.60;99.90;;;;;;6151789;23;20179;-70
2021/07/22 05:58:36;;;;;;;7.45;3.25;;;21.60;99.90;;;;;;6151206;23;20350;-70
2021/07/22 06:01:06;;;;;;;7.53;3.53;;;21.70;99.90;;;;;;6150731;23;20187;-70
2021/07/22 06:03:33;;;;;;;5.90;3.75;;;21.80;99.90;;;;;;6151348;23;20176;-69
2021/07/22 06:06:00;;;;;;;4.07;3.05;;;21.90;99.90;;;;;;6151313;23;20186;-69
2021/07/22 06:08:27;;;;;;;5.50;2.97;;;21.90;99.90;;;;;;6151308;23;20176;-68
2021/07/22 06:10:53;;;;;;;7.22;3.05;;;22.00;99.90;;;;;;6150800;23;20695;-69
2021/07/22 06:13:21;;;;;;;4.13;2.83;;;22.20;99.90;;;;;;6152278;23;20191;-69
2021/07/22 06:15:48;;;;;;;9.18;3.08;;;22.30;99.90;;;;;;6151458;23;20175;-69
2021/07/22 06:18:15;;;;;;;3.72;2.50;;;22.50;99.90;;;;;;6151498;23;20187;-69
2021/07/22 06:20:41;;;;;;;6.80;3.05;;;22.60;99.90;;;;;;6151970;23;20175;-70
2021/07/22 06:23:08;;;;;;;3.90;2.53;;;22.60;99.90;;;;;;6151809;23;20175;-69
2021/07/22 06:25:35;;;;;;;4.88;2.55;;;22.70;99.90;;;;;;6152605;23;20184;-70
2021/07/22 06:28:02;;;;;;;4.30;2.35;;;22.80;99.90;;;;;;6151359;23;20203;-70
2021/07/22 06:30:31;;;;;;;6.85;3.03;;;22.90;99.90;;;;;;6151255;23;20183;-71
2021/07/22 06:32:58;;;;;;;3.63;2.28;;;22.80;99.90;;;;;;6150942;23;20199;-69
2021/07/22 06:35:24;;;;;;;4.68;2.35;;;22.80;99.70;;;;;;6151343;23;20201;-69
2021/07/22 06:37:52;;;;;;;4.00;2.47;;;22.80;99.60;;;;;;6151001;23;20184;-70
2021/07/22 06:40:19;;;;;;;5.80;2.58;;;22.90;99.50;;;;;;6152058;23;20187;-70
2021/07/22 06:42:46;;;;;;;3.38;2.53;;;23.00;99.40;;;;;;6151873;23;20185;-70
2021/07/22 06:45:13;;;;;;;4.80;2.53;;;23.00;99.40;;;;;;6151870;23;20187;-69
2021/07/22 06:47:41;;;;;;;6.07;1.85;;;23.10;99.20;;;;;;6153799;23;20507;-70
2021/07/22 06:50:10;;;;;;;6.82;2.90;;;23.30;98.90;;;;;;6153704;23;20179;-69
2021/07/22 06:52:38;;;;;;;4.88;2.30;;;23.30;98.50;;;;;;6153875;23;20522;-70
2021/07/22 06:55:06;;;;;;;5.13;2.40;;;23.30;98.20;;;;;;6153179;23;20188;-68
2021/07/22 06:57:33;;;;;;;5.97;2.50;;;23.50;98.00;;;;;;6153568;23;20190;-68
2021/07/22 06:59:59;;;;;;;4.05;2.20;;;23.50;97.50;;;;;;6153681;23;20182;-70
2021/07/22 07:02:26;;;;;;;6.90;2.20;;;23.60;97.10;;;;;;6153822;23;20237;-69
2021/07/22 07:04:54;;;;;;;4.82;2.50;;;23.60;97.00;;;;;;6153842;23;20629;-69
2021/07/22 07:07:21;;;;;;;7.07;2.30;;;23.70;96.90;;;;;;6153657;23;20552;-70
2021/07/22 07:09:48;;;;;;;6.95;2.58;;;23.80;96.90;;;;;;6153298;23;20223;-69
2021/07/22 07:12:15;;;;;;;3.33;2.25;;;23.90;96.50;;;;;;6152680;23;20420;-69
2021/07/22 07:14:41;;;;;;;5.38;2.33;;;24.10;96.30;;;;;;6153547;23;20179;-70
2021/07/22 07:17:08;;;;;;;4.97;2.88;;;24.20;95.80;;;;;;6152816;23;20184;-70
2021/07/22 07:19:35;;;;;;;4.72;1.90;;;24.30;95.50;;;;;;6153221;23;20190;-69
2021/07/22 07:22:04;;;;;;;2.78;2.10;;;24.40;95.00;;;;;;6153677;23;20278;-69
2021/07/22 07:24:31;;;;;;;5.70;2.63;;;24.40;94.00;;;;;;6153534;23;20251;-69
2021/07/22 07:26:57;;;;;;;2.88;1.92;;;24.30;93.60;;;;;;6153595;23;20179;-70
2021/07/22 07:29:24;;;;;;;2.92;2.00;;;24.30;93.80;;;;;;6152191;23;20179;-69
2021/07/22 07:31:51;;;;;;;4.70;2.70;;;24.50;93.50;;;;;;6151875;23;20174;-69
2021/07/22 07:34:18;;;;;;;4.32;2.45;;;24.60;93.10;;;;;;6126853;23;20199;-71
2021/07/22 07:36:45;;;;;;;4.72;2.80;;;24.70;92.90;;;;;;6153120;23;20179;-71
2021/07/22 07:39:15;;;;;;;3.97;2.67;;;24.80;92.70;;;;;;6153510;23;20509;-68
2021/07/22 07:41:42;;;;;;;5.47;2.47;;;25.00;91.90;;;;;;6152160;23;20230;-69
2021/07/22 07:44:09;;;;;;;4.00;2.03;;;25.00;91.40;;;;;;6152088;23;20186;-70
2021/07/22 07:46:37;;;;;;;5.70;2.40;;;25.00;91.30;;;;;;6152951;23;20182;-69
2021/07/22 07:49:03;;;;;;;4.45;2.10;;;25.30;90.90;;;;;;6153098;23;20190;-70
2021/07/22 07:51:31;;;;;;;4.90;1.98;;;25.40;90.30;;;;;;6152471;23;20567;-69
2021/07/22 07:53:57;;;;;;;4.32;2.22;;;25.40;89.60;;;;;;6153164;23;20206;-69
2021/07/22 07:56:26;;;;;;;6.88;1.90;;;25.50;87.70;;;;;;6152988;23;20179;-71
2021/07/22 07:58:53;;;;;;;4.32;2.28;;;25.60;87.00;;;;;;6152879;23;20191;-70
2021/07/22 08:01:21;;;;;;;2.58;1.73;;;25.70;86.10;;;;;;6152841;23;20183;-71
2021/07/22 08:03:48;;;;;;;6.85;2.20;;;25.80;84.90;;;;;;6152590;23;20198;-70
2021/07/22 08:06:15;;;;;;;4.28;2.38;;;26.00;85.00;;;;;;6152424;23;20179;-70
2021/07/22 08:08:42;;;;;;;2.13;1.42;;;26.20;84.10;;;;;;6152393;23;20180;-70
2021/07/22 08:11:09;;;;;;;2.45;1.80;;;26.30;82.60;;;;;;6152328;23;20766;-70
2021/07/22 08:13:38;;;;;;;3.67;1.50;;;26.40;81.40;;;;;;6152232;23;20211;-70
2021/07/22 08:16:05;;;;;;;5.10;2.00;;;26.60;80.10;;;;;;6152301;23;20227;-69
2021/07/22 08:18:32;;;;;;;2.00;1.42;;;26.70;78.70;;;;;;6152573;23;20266;-70
2021/07/22 08:21:02;;;;;;;4.13;1.67;;;26.70;76.70;;;;;;6153039;23;20647;-70
2021/07/22 08:23:28;;;;;;;4.25;1.70;;;26.80;76.70;;;;;;6153108;23;20246;-70
2021/07/22 08:25:55;;;;;;;5.20;2.08;;;26.80;77.00;;;;;;6152557;23;20187;-69
2021/07/22 08:28:22;;;;;;;2.92;1.73;;;26.90;76.50;;;;;;6152085;23;20176;-69
2021/07/22 08:30:50;;;;;;;2.75;1.88;;;27.10;76.10;;;;;;6152198;23;20183;-70
2021/07/22 08:33:17;;;;;;;3.13;1.40;;;27.20;75.00;;;;;;6151589;23;20203;-69
2021/07/22 08:35:43;;;;;;;5.15;1.65;;;27.30;74.30;;;;;;6152871;23;20262;-70
2021/07/22 08:38:13;;;;;;;2.08;1.35;;;27.20;71.90;;;;;;6152060;23;20695;-69
2021/07/22 08:40:42;;;;;;;3.90;2.05;;;27.20;71.90;;;;;;6152665;23;20179;-69
2021/07/22 08:43:09;;;;;;;6.88;1.88;;;27.40;71.80;;;;;;6151919;23;20407;-70
2021/07/22 08:45:36;;;;;;;2.40;1.52;;;27.60;71.10;;;;;;6152119;23;20183;-70
2021/07/22 08:48:05;;;;;;;7.38;1.60;;;27.80;70.10;;;;;;6152699;23;20175;-69
2021/07/22 08:50:32;;;;;;;2.97;1.20;;;27.80;69.00;;;;;;6152413;23;20719;-68
2021/07/22 08:52:59;;;;;;;4.15;2.20;;;27.90;69.20;;;;;;6152397;23;20489;-70
2021/07/22 08:55:25;;;;;;;3.25;1.92;;;28.20;69.20;;;;;;6152734;23;20189;-68
2021/07/22 08:57:56;;;;;;;5.15;1.52;;;28.40;68.30;;;;;;6152370;23;20186;-69
2021/07/22 09:00:24;;;;;;;2.72;1.80;;;28.60;67.30;;;;;;6152533;23;20194;-68
2021/07/22 09:02:53;;;;;;;1.73;1.55;;;28.70;66.90;;;;;;6152206;23;20183;-69
2021/07/22 09:05:27;;;;;;;4.50;1.50;;;28.70;64.90;;;;;;6151756;23;20510;-69
2021/07/22 09:07:53;;;;;;;3.30;1.75;;;28.80;63.90;;;;;;6152376;23;20171;-69
2021/07/22 09:10:21;;;;;;;5.95;1.50;;;29.00;63.30;;;;;;6151816;23;20199;-70
2021/07/22 09:12:51;;;;;;;2.42;1.77;;;29.10;62.90;;;;;;6151529;23;20286;-68
2021/07/22 09:15:23;;;;;;;1.90;1.55;;;29.10;62.30;;;;;;6152236;23;20175;-69
2021/07/22 09:17:50;;;;;;;1.60;1.50;;;29.00;62.50;;;;;;6152092;23;20209;-69
2021/07/22 09:20:29;;;;;;;3.03;1.38;;;29.00;61.70;;;;;;6152035;23;20206;-70
2021/07/22 09:22:56;;;;;;;3.05;1.63;;;29.10;61.70;;;;;;6152196;23;20254;-68
2021/07/22 09:25:38;;;;;;;1.45;1.35;;;29.40;61.20;;;;;;6152122;23;20465;-69
2021/07/22 09:28:05;;;;;;;3.53;1.80;;;29.60;60.50;;;;;;6152565;23;20574;-71
2021/07/22 09:30:32;;;;;;;5.70;1.67;;;29.80;59.60;;;;;;6152973;23;20185;-70
2021/07/22 09:33:00;;;;;;;3.47;1.60;;;29.90;59.10;;;;;;6152388;23;20190;-70
2021/07/22 09:35:28;;;;;;;3.28;1.40;;;29.80;58.50;;;;;;6152714;23;20504;-69
2021/07/22 09:37:57;;;;;;;6.57;1.75;;;29.90;58.90;;;;;;6152918;23;20350;-69
2021/07/22 09:40:34;;;;;;;5.15;1.73;;;29.90;58.60;;;;;;6151765;23;20628;-69
2021/07/22 09:43:01;;;;;;;2.63;1.40;;;30.10;58.70;;;;;;6152266;23;20167;-68
2021/07/22 09:45:30;;;;;;;1.77;1.63;;;30.30;57.70;;;;;;6152070;23;20187;-69
2021/07/22 09:48:06;;;;;;;2.90;1.48;;;30.50;56.70;;;;;;6151664;23;20209;-69
2021/07/22 09:50:41;;;;;;;3.25;1.45;;;30.50;56.10;;;;;;6152458;23;20182;-69
2021/07/22 09:53:08;;;;;;;2.72;1.67;;;30.40;55.90;;;;;;6151462;23;20194;-70
2021/07/22 09:55:36;;;;;;;2.72;1.48;;;30.20;55.90;;;;;;6151476;23;20175;-69
2021/07/22 09:58:05;;;;;;;3.65;1.70;;;30.10;56.20;;;;;;6152762;23;20183;-69
2021/07/22 10:00:33;;;;;;;2.55;1.83;;;30.00;56.10;;;;;;6152049;23;20191;-69
2021/07/22 10:03:02;;;;;;;3.13;1.63;;;29.90;56.70;;;;;;6152051;23;20183;-68
2021/07/22 10:05:30;;;;;;;3.60;1.77;;;29.70;56.50;;;;;;6151930;23;20183;-69
2021/07/22 10:07:59;;;;;;;3.47;1.80;;;29.50;56.50;;;;;;6152631;23;20252;-69
2021/07/22 10:10:28;;;;;;;3.65;1.38;;;29.20;56.40;;;;;;6152052;23;20222;-69
2021/07/22 10:12:56;;;;;;;2.53;1.20;;;29.00;55.80;;;;;;6152534;23;20605;-69
2021/07/22 10:15:27;;;;;;;1.83;1.30;;;29.00;55.50;;;;;;6152091;23;20179;-68
2021/07/22 10:17:55;;;;;;;3.80;1.88;;;29.00;55.00;;;;;;6152395;23;20593;-70
2021/07/22 10:20:23;;;;;;;2.20;1.20;;;29.00;54.80;;;;;;6152144;23;20222;-68
2021/07/22 10:22:51;;;;;;;2.42;1.77;;;29.10;54.80;;;;;;6154460;23;20186;-68
2021/07/22 10:25:19;;;;;;;2.10;1.60;;;29.30;54.40;;;;;;6153820;23;20214;-69
2021/07/22 10:27:46;;;;;;;1.95;1.27;;;29.40;54.60;;;;;;6153788;23;20187;-69
2021/07/22 10:30:14;;;;;;;1.90;1.50;;;29.40;54.50;;;;;;6153800;23;20187;-68
2021/07/22 10:32:44;;;;;;;1.17;1.00;;;29.50;54.30;;;;;;6154366;23;20663;-68
2021/07/22 10:35:12;;;;;;;4.47;1.75;;;29.50;53.50;;;;;;6153687;23;20183;-69
2021/07/22 10:37:59;;;;;;;3.08;1.80;;;29.40;53.80;;;;;;6153303;23;20183;-70
2021/07/22 10:40:47;;;;;;;2.55;1.80;;;29.20;53.80;;;;;;6153378;23;20188;-69
2021/07/22 10:43:36;;;;;;;1.92;1.42;;;29.00;54.00;;;;;;6153923;23;20589;-69
2021/07/22 10:46:03;;;;;;;1.48;1.38;;;29.20;53.80;;;;;;6153540;23;20183;-69
2021/07/22 10:48:30;;;;;;;2.25;1.27;;;29.40;53.30;;;;;;6153794;23;20186;-69
2021/07/22 10:51:10;;;;;;;2.25;1.40;;;29.60;52.60;;;;;;6153604;23;20179;-69
2021/07/22 10:53:42;;;;;;;1.73;1.35;;;29.90;51.90;;;;;;6153814;23;20548;-69
2021/07/22 10:56:11;;;;;;;2.13;1.10;;;30.00;51.50;;;;;;6153729;23;20168;-68
2021/07/22 10:58:49;;;;;;;1.50;1.40;;;30.20;51.00;;;;;;6153923;23;20724;-70
2021/07/22 11:02:00;;;;;;;1.88;1.70;;;30.30;51.30;;;;;;6153663;23;20183;-69
2021/07/22 11:04:43;;;;;;;2.15;1.58;;;30.50;51.60;;;;;;6153831;23;20620;-69
2021/07/22 11:07:31;;;;;;;3.30;1.38;;;30.60;51.70;;;;;;6153655;23;20175;-68
2021/07/22 11:10:01;;;;;;;2.17;1.38;;;30.60;51.50;;;;;;6144062;23;20206;-69
2021/07/22 11:12:42;;;;;;;5.40;1.40;;;30.60;51.50;;;;;;6153168;23;20207;-69
2021/07/22 11:15:10;;;;;;;3.38;1.45;;;30.50;51.50;;;;;;6152877;23;20190;-69
2021/07/22 11:17:37;;;;;;;3.10;1.75;;;30.40;52.20;;;;;;6153410;23;20186;-68
2021/07/22 11:20:33;;;;;;;2.70;1.65;;;30.40;52.30;;;;;;6153305;23;20609;-69
2021/07/22 11:23:12;;;;;;;2.08;1.50;;;30.40;52.10;;;;;;6154376;23;20467;-69
2021/07/22 11:25:44;;;;;;;3.15;1.42;;;30.40;51.80;;;;;;6152558;23;20167;-68
2021/07/22 11:28:13;;;;;;;1.58;1.42;;;30.40;52.10;;;;;;6153019;23;20176;-68
2021/07/22 11:30:39;;;;;;;2.95;1.48;;;30.40;51.70;;;;;;6152662;23;20175;-69
2021/07/22 11:33:16;;;;;;;2.20;1.90;;;30.50;51.40;;;;;;6153382;23;20176;-69
2021/07/22 11:35:54;;;;;;;2.47;1.45;;;30.50;51.10;;;;;;6152924;23;20201;-68
2021/07/22 11:38:20;;;;;;;1.60;1.40;;;30.40;51.10;;;;;;6152858;23;20163;-68
2021/07/22 11:40:47;;;;;;;2.10;1.30;;;30.50;51.50;;;;;;6153578;23;20179;-68
2021/07/22 11:43:32;;;;;;;2.13;1.55;;;30.70;51.10;;;;;;6153001;23;20180;-70
2021/07/22 11:45:58;;;;;;;1.50;1.23;;;30.70;50.80;;;;;;6152785;23;20174;-69
2021/07/22 11:48:26;;;;;;;3.33;1.70;;;30.70;51.00;;;;;;6152830;23;20179;-68
2021/07/22 11:51:00;;;;;;;8.70;5.28;;;30.60;50.50;;;;;;6152266;23;20187;-68
2021/07/22 11:53:26;;;;;;;9.32;7.90;;;30.50;50.30;;;;;;6152590;23;20250;-68
2021/07/22 11:55:53;;;;;;;2.80;2.00;;;30.40;50.20;;;;;;6153198;23;20202;-69
2021/07/22 11:58:21;;;;;;;2.80;1.98;;;30.40;50.40;;;;;;6152894;23;20270;-69
2021/07/22 12:00:48;;;;;;;3.80;1.88;;;30.40;50.40;;;;;;6153164;23;20175;-68
2021/07/22 12:03:15;;;;;;;3.55;1.88;;;30.40;50.80;;;;;;6152543;23;20183;-70
2021/07/22 12:05:42;;;;;;;2.17;1.75;;;30.70;50.30;;;;;;6152722;23;20175;-68
2021/07/22 12:08:16;;;;;;;1.50;1.40;;;31.00;49.80;;;;;;6152877;23;20619;-68
2021/07/22 12:10:43;;;;;;;4.75;1.70;;;31.30;49.00;;;;;;6151984;23;20203;-68
2021/07/22 12:13:10;;;;;;;3.83;2.00;;;31.40;47.90;;;;;;6152501;23;20168;-69
2021/07/22 12:15:39;;;;;;;2.50;2.20;;;31.40;47.60;;;;;;6152331;23;20274;-68
2021/07/22 12:18:06;;;;;;;2.38;2.17;;;31.40;47.30;;;;;;6152643;23;20179;-71
2021/07/22 12:20:34;;;;;;;3.58;1.90;;;31.40;46.90;;;;;;6152705;23;20183;-69
2021/07/22 12:23:20;;;;;;;2.75;2.00;;;31.30;46.00;;;;;;6152052;23;20183;-68
2021/07/22 12:25:56;;;;;;;2.75;1.98;;;31.30;46.10;;;;;;6151667;23;20179;-69
2021/07/22 12:28:23;;;;;;;4.32;2.33;;;31.40;46.10;;;;;;6152347;23;20167;-69
2021/07/22 12:30:51;;;;;;;2.72;2.50;;;31.50;46.30;;;;;;6152450;23;20184;-68
2021/07/22 12:33:24;;;;;;;2.53;2.10;;;31.60;45.70;;;;;;6152080;23;20190;-68
2021/07/22 12:35:51;;;;;;;2.00;1.80;;;31.50;46.00;;;;;;6152715;23;20191;-68
2021/07/22 12:38:27;;;;;;;2.60;2.00;;;31.30;46.10;;;;;;6152928;23;20246;-69
2021/07/22 12:41:09;;;;;;;3.25;2.20;;;31.00;47.10;;;;;;6152507;23;20238;-68
2021/07/22 12:43:50;;;;;;;2.53;1.80;;;30.80;47.80;;;;;;6152126;23;20172;-69
2021/07/22 12:46:20;;;;;;;1.92;1.60;;;30.40;47.90;;;;;;6152292;23;20472;-69
2021/07/22 12:48:48;;;;;;;3.78;2.13;;;30.10;48.60;;;;;;6152514;23;20175;-68
2021/07/22 12:51:16;;;;;;;3.75;2.95;;;29.90;49.90;;;;;;6152779;23;20427;-69